Aérodrome :
LOGIN :

S'inscrire | Disclaimer

   EN    FR    IT 

 










Légende :    VFR   VFR Marginal   IFR   IFR Intensif   IFR Très Intensif
Visi : 
Plafond : 
>= 8 km
>= 3000ft
5 à 8 km
1000 à 3000 ft
1500m à 5 km
500 à 1000 ft
800 à 1500m
200 à 500 ft
< 800m
< 200 ft
Symboles :   Orages  Brouillard  Fortes neiges  Fortes précipitations  Vent > 20 kt
SIGMETs :   Divers  Orages  Givrage  Turbulence  Onde Orograph.  Cendres Volcan.






- Altitude de l'aérodrome : 3 ft
- Code IATA : LWR


EHLW - Leuuwarden Air Base

DERNIER METAR :
  • 220132Z AUTO 31012KT 9999 FEW008 SCT011 BKN016 07/06 Q1031 GRN

METARs EXPIRÉS :
  • 220119Z AUTO 31012KT 280V340 9000 BR FEW008 BKN015 OVC019 07/06 Q1031 WHT
  • 220103Z AUTO 32013KT 270V340 7000 -UP FEW009 SCT010 BKN015 07/06 Q1031 GRN
  • 220102Z AUTO 31013KT 270V340 6000 BR FEW009 SCT010 BKN015 07/06 Q1031 GRN
  • 220025Z AUTO 31012KT 280V350 9999 BKN012 OVC014 07/06 Q1031 GRN
  • 220017Z AUTO 31011KT 9999 BKN014 OVC017 07/06 Q1031 GRN
  • 212355Z AUTO 31011KT 280V340 9999 OVC015 07/06 Q1031 WHT
  • 212336Z AUTO 31011KT 270V330 9999 FEW012 SCT014 OVC017 07/05 Q1031 GRN
  • 212325Z AUTO 30012KT 270V330 9999 BKN015 OVC018 07/05 Q1031 WHT
  • 212257Z AUTO 31013KT 9999 FEW012 BKN015 OVC020 07/05 Q1031 WHT
  • 212251Z AUTO 31012KT 9999 SCT012 BKN015 OVC019 07/05 Q1031 GRN
  • 212240Z AUTO 31012KT 280V340 9999 SCT013 OVC016 07/05 Q1031 GRN

TAF TAF EHLW
Valide du 21 à 22h jusqu'au 22 à 10h UTC


212151Z 2122/2210 30010KT BKN015 BKN020
TEMPO 2122/2202 33012G22KT 3000 -RADZ BKN004 BKN008
BECMG 2201/2203 BKN020



MET'MAP, la Météo Aéronautique d'un coup d'oeil ! - Copyright ORBIFLY Décembre 2007 - Disclaimer

ORBIFLY MET'MAP TEAM :

Programmation & Développement : Alexandra Zaïnal
Sur une idée originale de : Baudouin d'Aumeries
Assistance à la programmation : Marc-Olivier Méhu
Soutien technique & logistique : Manuel Goepfert

Contact : metmap@orbifly.com




SOURCES & CREDITS :

   NOAA